createdAt,value
2023-04-15T00:00:58.489Z,30.31
2023-04-15T00:03:25.523Z,30.83
2023-04-15T00:05:52.104Z,31.52
2023-04-15T00:08:18.612Z,32.44
2023-04-15T00:10:46.484Z,32.10
2023-04-15T00:13:13.100Z,32.54
2023-04-15T00:15:39.510Z,30.95
2023-04-15T00:18:07.390Z,32.18
2023-04-15T00:20:34.354Z,32.91
2023-04-15T00:23:02.573Z,33.14
2023-04-15T00:25:29.138Z,32.27
2023-04-15T00:27:55.567Z,32.73
2023-04-15T00:30:22.077Z,33.18
2023-04-15T00:32:49.420Z,32.51
2023-04-15T00:35:16.514Z,34.18
2023-04-15T00:37:44.808Z,33.45
2023-04-15T00:40:13.642Z,32.39
2023-04-15T00:42:40.045Z,32.84
2023-04-15T00:45:07.307Z,30.07
2023-04-15T00:47:35.522Z,30.39
2023-04-15T00:50:02.272Z,30.32
2023-04-15T00:52:28.648Z,30.69
2023-04-15T00:54:55.677Z,31.77
2023-04-15T00:57:22.739Z,31.46
2023-04-15T00:59:49.210Z,32.77
2023-04-15T01:02:16.482Z,31.42
2023-04-15T01:04:43.504Z,28.14
2023-04-15T01:07:09.905Z,27.73
2023-04-15T01:09:36.439Z,28.86
2023-04-15T01:12:04.050Z,28.73
2023-04-15T01:14:30.660Z,27.05
2023-04-15T01:16:57.575Z,26.82
2023-04-15T01:19:24.136Z,28.46
2023-04-15T01:21:50.661Z,27.44
2023-04-15T01:24:18.444Z,26.98
2023-04-15T01:26:45.240Z,27.25
2023-04-15T01:29:11.653Z,27.67
2023-04-15T01:31:38.608Z,27.36
2023-04-15T01:34:05.018Z,27.47
2023-04-15T01:36:31.415Z,27.20
2023-04-15T01:38:58.484Z,27.08
2023-04-15T01:41:28.229Z,27.62
2023-04-15T01:43:55.189Z,26.82
2023-04-15T01:46:23.106Z,27.26
2023-04-15T01:48:49.694Z,27.71
2023-04-15T01:51:16.589Z,27.49
2023-04-15T01:53:42.953Z,26.72
2023-04-15T01:56:09.352Z,26.74
2023-04-15T01:58:35.833Z,27.37
2023-04-15T02:01:03.028Z,27.33
2023-04-15T02:03:29.826Z,28.08
2023-04-15T02:05:56.703Z,28.58
2023-04-15T02:08:23.116Z,29.35
2023-04-15T02:10:49.510Z,29.26
2023-04-15T02:13:16.910Z,28.74
2023-04-15T02:15:50.917Z,29.20
2023-04-15T02:18:17.367Z,31.22
2023-04-15T02:20:44.360Z,32.06
2023-04-15T02:23:11.216Z,32.41
2023-04-15T02:25:39.006Z,32.62
2023-04-15T02:28:06.317Z,32.89
2023-04-15T02:30:33.921Z,31.95
2023-04-15T02:33:01.315Z,31.25
2023-04-15T02:35:27.754Z,33.59
2023-04-15T02:37:54.198Z,33.46
2023-04-15T02:40:20.662Z,32.82
2023-04-15T02:42:47.023Z,33.21
2023-04-15T02:45:13.587Z,33.92
2023-04-15T02:47:43.915Z,32.71
2023-04-15T02:50:12.697Z,33.22
2023-04-15T02:52:42.768Z,33.34
2023-04-15T02:55:09.682Z,33.02
2023-04-15T02:57:40.621Z,33.85
2023-04-15T03:00:09.621Z,32.58
2023-04-15T03:02:38.107Z,33.53
2023-04-15T03:05:06.035Z,33.54
2023-04-15T03:07:32.525Z,32.36
2023-04-15T03:09:58.909Z,32.52
2023-04-15T03:12:25.405Z,33.27
2023-04-15T03:14:51.763Z,33.41
2023-04-15T03:17:18.241Z,32.66
2023-04-15T03:19:44.614Z,34.38
2023-04-15T03:22:11.017Z,34.60
2023-04-15T03:24:37.397Z,34.26
2023-04-15T03:27:03.780Z,36.18
2023-04-15T03:29:30.110Z,34.12
2023-04-15T03:31:56.839Z,33.83
2023-04-15T03:34:23.251Z,33.20
2023-04-15T03:36:49.705Z,33.00
2023-04-15T03:39:16.558Z,33.14
2023-04-15T03:41:42.946Z,35.31
2023-04-15T03:44:09.336Z,34.01
2023-04-15T03:46:35.845Z,35.46
2023-04-15T03:49:02.481Z,34.20
2023-04-15T03:51:29.193Z,34.42
2023-04-15T03:53:56.005Z,35.12
2023-04-15T03:56:22.398Z,35.61
2023-04-15T03:58:48.810Z,35.00
2023-04-15T04:01:15.519Z,35.20
2023-04-15T04:03:42.518Z,35.18
2023-04-15T04:06:09.132Z,35.44
2023-04-15T04:08:35.589Z,35.43
2023-04-15T04:11:01.988Z,35.50
2023-04-15T04:13:28.413Z,36.19
2023-04-15T04:15:54.823Z,37.72
2023-04-15T04:18:21.412Z,35.33
2023-04-15T04:20:47.825Z,37.94
2023-04-15T04:23:14.265Z,37.05
2023-04-15T04:25:40.652Z,38.76
2023-04-15T04:28:07.323Z,38.29
2023-04-15T04:30:33.728Z,39.24
2023-04-15T04:33:01.261Z,37.79
2023-04-15T04:35:27.722Z,37.59
2023-04-15T04:37:54.156Z,37.06
2023-04-15T04:40:20.688Z,38.88
2023-04-15T04:42:47.615Z,37.89
2023-04-15T04:45:14.091Z,37.21
2023-04-15T04:47:40.692Z,37.52
2023-04-15T04:50:08.172Z,39.90
2023-04-15T04:52:34.577Z,38.75
2023-04-15T04:55:01.155Z,40.04
2023-04-15T04:57:27.492Z,39.31
2023-04-15T04:59:53.920Z,39.29
2023-04-15T05:02:20.544Z,39.33
2023-04-15T05:04:47.217Z,39.08
2023-04-15T05:07:13.676Z,39.30
2023-04-15T05:09:40.051Z,39.77
2023-04-15T05:12:07.758Z,40.50
2023-04-15T05:14:34.209Z,41.18
2023-04-15T05:17:00.703Z,41.34
2023-04-15T05:19:27.060Z,41.60
2023-04-15T05:21:53.432Z,41.74
2023-04-15T05:24:19.831Z,41.52
2023-04-15T05:26:46.338Z,41.45
2023-04-15T05:29:12.752Z,40.28
2023-04-15T05:31:39.281Z,42.85
2023-04-15T05:34:07.042Z,40.20
2023-04-15T05:36:33.415Z,41.73
2023-04-15T05:38:59.955Z,40.74
2023-04-15T05:41:26.465Z,39.58
2023-04-15T05:43:52.970Z,42.44
2023-04-15T05:46:19.623Z,42.31
2023-04-15T05:48:46.055Z,42.32
2023-04-15T05:51:12.563Z,42.66
2023-04-15T05:53:38.929Z,41.47
2023-04-15T05:56:05.649Z,41.09
2023-04-15T05:58:32.010Z,42.46
2023-04-15T06:00:58.720Z,43.04
2023-04-15T06:03:25.527Z,42.28
2023-04-15T06:05:52.165Z,41.87
2023-04-15T06:08:18.876Z,42.90
2023-04-15T06:10:46.036Z,41.79
2023-04-15T06:13:12.997Z,42.57
2023-04-15T06:15:39.409Z,41.94
2023-04-15T06:18:05.796Z,41.14
2023-04-15T06:20:32.614Z,39.93
2023-04-15T06:22:59.138Z,40.89
2023-04-15T06:25:25.539Z,38.84
2023-04-15T06:27:51.918Z,40.57
2023-04-15T06:30:18.458Z,40.40
2023-04-15T06:32:45.084Z,37.68
2023-04-15T06:35:11.619Z,37.45
2023-04-15T06:37:38.022Z,39.95
2023-04-15T06:40:05.211Z,40.03
2023-04-15T06:42:32.108Z,38.17
2023-04-15T06:44:58.597Z,38.06
2023-04-15T06:47:25.052Z,38.22
2023-04-15T06:49:51.874Z,39.04
2023-04-15T06:52:18.370Z,39.92
2023-04-15T06:54:44.763Z,39.39
2023-04-15T06:57:11.212Z,37.37
2023-04-15T06:59:37.541Z,37.99
2023-04-15T07:02:04.528Z,37.99
2023-04-15T07:04:31.542Z,36.97
2023-04-15T07:06:58.050Z,37.23
2023-04-15T07:09:24.778Z,37.29
2023-04-15T07:11:51.479Z,34.86
2023-04-15T07:14:18.117Z,35.49
2023-04-15T07:16:44.558Z,36.41
2023-04-15T07:19:11.591Z,35.15
2023-04-15T07:21:39.464Z,35.34
2023-04-15T07:24:07.734Z,35.36
2023-04-15T07:26:34.090Z,34.81
2023-04-15T07:29:00.595Z,33.52
2023-04-15T07:31:27.419Z,33.16
2023-04-15T07:33:53.836Z,34.13
2023-04-15T07:36:20.731Z,34.36
2023-04-15T07:38:47.574Z,33.35
2023-04-15T07:41:14.230Z,33.30
2023-04-15T07:43:40.638Z,33.03
2023-04-15T07:46:07.140Z,33.55
2023-04-15T07:48:34.494Z,34.30
2023-04-15T07:51:02.725Z,32.84
2023-04-15T07:53:29.160Z,32.86
2023-04-15T07:55:55.901Z,33.28
2023-04-15T07:58:22.273Z,33.45
2023-04-15T08:00:48.956Z,32.53
2023-04-15T08:03:15.584Z,32.29
2023-04-15T08:05:42.163Z,32.07
2023-04-15T08:08:08.918Z,32.60
2023-04-15T08:10:35.569Z,31.93
2023-04-15T08:13:02.166Z,32.59
2023-04-15T08:15:28.688Z,32.27
2023-04-15T08:17:55.152Z,32.27
2023-04-15T08:20:21.684Z,33.62
2023-04-15T08:22:51.774Z,33.36
2023-04-15T08:25:19.817Z,34.43
2023-04-15T08:27:46.558Z,34.39
2023-04-15T08:30:13.906Z,33.36
2023-04-15T08:32:46.213Z,32.68
2023-04-15T08:35:13.110Z,33.05
2023-04-15T08:37:39.472Z,34.74
2023-04-15T08:40:06.694Z,34.55
2023-04-15T08:42:48.142Z,32.78
2023-04-15T08:45:15.131Z,31.82
2023-04-15T08:47:44.006Z,33.24
2023-04-15T08:50:11.782Z,33.43
2023-04-15T08:52:39.739Z,32.53
2023-04-15T08:55:09.631Z,31.45
2023-04-15T08:57:36.901Z,31.57
2023-04-15T09:00:05.612Z,32.34
2023-04-15T09:02:32.464Z,31.85
2023-04-15T09:04:58.875Z,32.09
2023-04-15T09:07:25.527Z,32.91
2023-04-15T09:09:52.301Z,32.07
2023-04-15T09:12:18.754Z,31.84
2023-04-15T09:14:47.302Z,31.76
2023-04-15T09:17:13.903Z,31.18
2023-04-15T09:19:40.283Z,31.14
2023-04-15T09:22:06.787Z,33.28
2023-04-15T09:24:39.142Z,31.71
2023-04-15T09:27:06.417Z,30.96
2023-04-15T09:29:32.999Z,30.99
2023-04-15T09:32:15.713Z,31.15
2023-04-15T09:34:43.192Z,30.58
2023-04-15T09:37:10.875Z,29.61
2023-04-15T09:39:50.932Z,29.86
2023-04-15T09:42:24.101Z,31.05
2023-04-15T09:44:52.126Z,30.43
2023-04-15T09:47:32.101Z,29.63
2023-04-15T09:50:00.403Z,30.15
2023-04-15T09:52:27.302Z,30.60
2023-04-15T09:54:56.472Z,30.63
2023-04-15T09:57:23.835Z,30.14
2023-04-15T09:59:51.282Z,29.88
2023-04-15T10:02:21.255Z,28.81
2023-04-15T10:04:48.853Z,28.88
2023-04-15T10:07:15.687Z,29.26
2023-04-15T10:09:45.688Z,30.51
2023-04-15T10:12:12.549Z,30.02
2023-04-15T10:14:41.501Z,30.38
2023-04-15T10:17:11.013Z,30.65
2023-04-15T10:19:38.087Z,30.00
2023-04-15T10:22:04.795Z,30.08
2023-04-15T10:24:32.222Z,30.62
2023-04-15T10:26:59.945Z,32.50
2023-04-15T10:29:29.229Z,34.72
2023-04-15T10:31:56.760Z,34.29
2023-04-15T10:34:24.795Z,33.17
2023-04-15T10:36:51.910Z,33.23
2023-04-15T10:39:33.934Z,34.44
2023-04-15T10:42:10.869Z,32.95
2023-04-15T10:44:38.944Z,32.67
2023-04-15T10:47:12.446Z,32.11
2023-04-15T10:49:47.833Z,36.08
2023-04-15T10:52:16.198Z,35.21
2023-04-15T10:54:42.687Z,33.00
2023-04-15T10:57:15.437Z,32.37
2023-04-15T11:00:04.550Z,32.28
2023-04-15T11:02:48.906Z,31.54
2023-04-15T11:05:19.179Z,32.41
2023-04-15T11:07:58.579Z,31.90
2023-04-15T11:10:31.211Z,31.83
2023-04-15T11:13:02.676Z,31.83
2023-04-15T11:15:42.987Z,30.79
2023-04-15T11:18:10.146Z,33.77
2023-04-15T11:20:37.166Z,31.65
2023-04-15T11:23:14.777Z,31.37
2023-04-15T11:25:43.006Z,30.81
2023-04-15T11:28:09.917Z,31.48
2023-04-15T11:30:38.028Z,31.71
2023-04-15T11:33:06.695Z,33.10
2023-04-15T11:35:33.486Z,32.32
2023-04-15T11:38:08.576Z,33.66
2023-04-15T11:40:35.761Z,33.15
2023-04-15T11:43:11.160Z,32.20
2023-04-15T11:45:47.589Z,31.60
2023-04-15T11:48:14.460Z,32.59
2023-04-15T11:50:41.540Z,32.43
2023-04-15T11:53:12.814Z,32.86
2023-04-15T11:55:44.081Z,31.44
2023-04-15T11:58:19.529Z,30.97
2023-04-15T12:00:48.181Z,31.31
2023-04-15T12:03:30.424Z,32.22
2023-04-15T12:06:21.653Z,35.59
2023-04-15T12:09:00.829Z,33.08
2023-04-15T12:11:27.138Z,32.33
2023-04-15T12:14:18.401Z,34.09
2023-04-15T12:16:50.040Z,35.59
2023-04-15T12:19:22.696Z,34.09
2023-04-15T12:21:49.282Z,35.24
2023-04-15T12:24:19.737Z,34.89
2023-04-15T12:26:48.776Z,33.95
2023-04-15T12:29:17.370Z,35.11
2023-04-15T12:31:52.952Z,33.20
2023-04-15T12:34:27.972Z,34.52
2023-04-15T12:36:54.944Z,33.55
2023-04-15T12:39:25.832Z,33.51
2023-04-15T12:41:52.873Z,33.37
2023-04-15T12:44:19.823Z,34.03
2023-04-15T12:46:46.763Z,35.51
2023-04-15T12:49:14.843Z,35.44
2023-04-15T12:51:41.686Z,34.11
2023-04-15T12:54:08.084Z,32.66
2023-04-15T12:56:34.499Z,32.91
2023-04-15T12:59:00.862Z,34.42
2023-04-15T13:01:27.281Z,33.58
2023-04-15T13:03:53.804Z,34.07
2023-04-15T13:06:20.230Z,33.96
2023-04-15T13:08:57.404Z,34.29
2023-04-15T13:11:25.292Z,34.06
2023-04-15T13:13:52.862Z,33.81
2023-04-15T13:16:19.533Z,34.89
2023-04-15T13:18:46.203Z,34.86
2023-04-15T13:21:13.104Z,36.16
2023-04-15T13:23:39.605Z,37.95
2023-04-15T13:26:05.992Z,41.30
2023-04-15T13:28:32.389Z,41.10
2023-04-15T13:31:00.231Z,41.28
2023-04-15T13:33:27.117Z,44.20
2023-04-15T13:35:53.474Z,46.59
2023-04-15T13:38:20.336Z,45.67
2023-04-15T13:40:46.766Z,42.99
2023-04-15T13:43:13.095Z,42.09
2023-04-15T13:45:39.710Z,42.92
2023-04-15T13:48:06.404Z,45.70
2023-04-15T13:50:32.755Z,44.90
2023-04-15T13:52:59.111Z,41.79
2023-04-15T13:55:27.133Z,43.57
2023-04-15T13:57:54.417Z,41.42
2023-04-15T14:00:21.054Z,42.04
2023-04-15T14:02:47.520Z,41.22
2023-04-15T14:05:14.050Z,40.09
2023-04-15T14:07:40.933Z,42.21
2023-04-15T14:10:07.876Z,42.51
2023-04-15T14:12:34.321Z,39.59
2023-04-15T14:15:00.826Z,40.85
2023-04-15T14:17:27.425Z,40.47
2023-04-15T14:19:53.917Z,39.93
2023-04-15T14:22:20.307Z,41.20
2023-04-15T14:24:48.692Z,42.20
2023-04-15T14:27:16.385Z,42.17
2023-04-15T14:29:42.843Z,41.56
2023-04-15T14:32:12.011Z,40.82
2023-04-15T14:34:39.298Z,41.37
2023-04-15T14:37:06.025Z,42.11
2023-04-15T14:39:32.454Z,40.69
2023-04-15T14:41:58.957Z,39.47
2023-04-15T14:44:25.393Z,41.15
2023-04-15T14:46:52.208Z,40.14
2023-04-15T14:49:18.651Z,39.36
2023-04-15T14:51:46.171Z,38.56
2023-04-15T14:54:12.564Z,37.89
2023-04-15T14:56:39.052Z,40.24
2023-04-15T14:59:06.143Z,41.18
2023-04-15T15:01:33.589Z,40.87
2023-04-15T15:04:00.264Z,40.40
2023-04-15T15:06:26.791Z,40.62
2023-04-15T15:08:53.218Z,40.78
2023-04-15T15:11:19.629Z,40.68
2023-04-15T15:13:46.025Z,42.04
2023-04-15T15:16:14.472Z,41.82
2023-04-15T15:18:41.156Z,41.90
2023-04-15T15:21:07.584Z,42.07
2023-04-15T15:23:33.980Z,42.45
2023-04-15T15:26:00.493Z,42.28
2023-04-15T15:28:26.999Z,41.99
2023-04-15T15:30:53.503Z,41.45
2023-04-15T15:33:20.721Z,41.73
2023-04-15T15:35:47.192Z,41.80
2023-04-15T15:38:13.609Z,40.12
2023-04-15T15:40:40.280Z,39.89
2023-04-15T15:43:06.699Z,39.11
2023-04-15T15:45:33.642Z,38.81
2023-04-15T15:48:02.165Z,40.13
2023-04-15T15:50:28.695Z,42.15
2023-04-15T15:52:55.353Z,42.37
2023-04-15T15:55:21.820Z,43.15
2023-04-15T15:57:48.368Z,43.55
2023-04-15T16:00:14.967Z,42.84
2023-04-15T16:05:12.673Z,43.52
2023-04-15T16:07:39.081Z,44.32
2023-04-15T16:10:06.244Z,44.21
2023-04-15T16:12:35.051Z,44.52
2023-04-15T16:15:01.638Z,44.02
2023-04-15T16:17:28.152Z,40.63
2023-04-15T16:20:00.398Z,40.66
2023-04-15T16:22:27.622Z,43.07
2023-04-15T16:24:54.103Z,44.03
2023-04-15T16:27:20.847Z,44.07
2023-04-15T16:29:47.268Z,44.18
2023-04-15T16:32:13.821Z,45.63
2023-04-15T16:34:41.244Z,45.23
2023-04-15T16:37:07.801Z,45.09
2023-04-15T16:39:34.205Z,45.97
2023-04-15T16:42:02.171Z,46.01
2023-04-15T16:44:28.669Z,45.86
2023-04-15T16:46:55.177Z,46.38
2023-04-15T16:49:21.593Z,45.06
2023-04-15T16:51:47.960Z,44.07
2023-04-15T16:54:14.326Z,43.37
2023-04-15T16:56:40.884Z,44.11
2023-04-15T16:59:07.276Z,45.40
2023-04-15T17:01:33.752Z,43.82
2023-04-15T17:04:00.524Z,44.04
2023-04-15T17:06:27.012Z,42.59
2023-04-15T17:08:53.384Z,41.90
2023-04-15T17:11:19.935Z,45.47
2023-04-15T17:13:47.516Z,42.89
2023-04-15T17:16:13.998Z,43.47
2023-04-15T17:18:40.652Z,43.10
2023-04-15T17:21:07.106Z,40.82
2023-04-15T17:23:33.553Z,37.56
2023-04-15T17:25:59.928Z,41.74
2023-04-15T17:28:26.326Z,41.75
2023-04-15T17:30:52.855Z,33.13
2023-04-15T17:33:52.948Z,33.27
2023-04-15T17:36:05.883Z,34.71
2023-04-15T17:38:32.363Z,31.69
2023-04-15T17:40:58.989Z,32.02
2023-04-15T17:43:25.340Z,30.73
2023-04-15T17:45:51.858Z,31.40
2023-04-15T17:48:18.242Z,31.80
2023-04-15T17:50:44.642Z,31.77
2023-04-15T17:53:11.214Z,31.34
2023-04-15T17:55:37.752Z,31.40
2023-04-15T17:58:04.116Z,31.63
2023-04-15T18:00:30.692Z,31.36
2023-04-15T18:02:57.382Z,32.07
2023-04-15T18:05:24.064Z,31.29
2023-04-15T18:07:52.100Z,31.00
2023-04-15T18:10:19.652Z,30.83
2023-04-15T18:12:46.778Z,31.09
2023-04-15T18:15:14.455Z,30.95
2023-04-15T18:17:40.982Z,30.42
2023-04-15T18:20:07.728Z,31.15
2023-04-15T18:22:34.130Z,30.94
2023-04-15T18:25:04.136Z,31.18
2023-04-15T18:27:34.544Z,31.69
2023-04-15T18:30:01.164Z,30.66
2023-04-15T18:32:31.643Z,30.79
2023-04-15T18:34:58.405Z,31.06
2023-04-15T18:37:26.138Z,30.70
2023-04-15T18:39:52.649Z,30.50
2023-04-15T18:42:19.803Z,31.54
2023-04-15T18:44:46.236Z,31.36
2023-04-15T18:47:12.708Z,31.40
2023-04-15T18:49:39.224Z,31.27
2023-04-15T18:52:06.542Z,31.70
2023-04-15T18:54:33.210Z,31.75
2023-04-15T18:56:59.569Z,32.29
2023-04-15T18:59:30.181Z,31.42
2023-04-15T19:01:58.740Z,31.43
2023-04-15T19:04:25.504Z,31.06
2023-04-15T19:06:51.984Z,31.07
2023-04-15T19:09:18.479Z,31.32
2023-04-15T19:11:44.954Z,31.35
2023-04-15T19:14:11.683Z,31.72
2023-04-15T19:16:38.155Z,31.43
2023-04-15T19:19:06.570Z,31.25
2023-04-15T19:21:33.336Z,31.50
2023-04-15T19:24:00.727Z,31.72
2023-04-15T19:26:27.362Z,31.97
2023-04-15T19:28:53.869Z,31.85
2023-04-15T19:31:20.584Z,31.53
2023-04-15T19:33:47.040Z,31.32
2023-04-15T19:36:13.431Z,31.62
2023-04-15T19:38:40.073Z,31.00
2023-04-15T19:41:06.546Z,30.77
2023-04-15T19:43:33.067Z,31.00
2023-04-15T19:45:59.636Z,31.15
2023-04-15T19:48:26.152Z,31.61
2023-04-15T19:50:52.680Z,31.34
2023-04-15T19:53:19.093Z,31.04
2023-04-15T19:55:47.145Z,31.20
2023-04-15T19:58:13.723Z,31.15
2023-04-15T20:00:40.634Z,31.68
2023-04-15T20:03:07.582Z,31.01
2023-04-15T20:05:34.293Z,31.45
2023-04-15T20:08:01.648Z,31.66
2023-04-15T20:10:28.361Z,31.08
2023-04-15T20:12:54.815Z,31.36
2023-04-15T20:15:23.398Z,30.82
2023-04-15T20:17:50.016Z,31.12
2023-04-15T20:20:16.572Z,31.51
2023-04-15T20:22:42.986Z,31.00
2023-04-15T20:25:09.627Z,31.52
2023-04-15T20:27:36.071Z,31.64
2023-04-15T20:30:04.659Z,30.99
2023-04-15T20:32:35.262Z,30.76
2023-04-15T20:35:03.336Z,31.28
2023-04-15T20:37:32.951Z,30.07
2023-04-15T20:40:00.286Z,30.93
2023-04-15T20:42:26.755Z,30.45
2023-04-15T20:44:53.107Z,30.42
2023-04-15T20:47:19.666Z,30.75
2023-04-15T20:49:47.284Z,30.58
2023-04-15T20:52:13.653Z,30.69
2023-04-15T20:54:40.119Z,30.59
2023-04-15T20:57:06.524Z,31.34
2023-04-15T20:59:34.635Z,30.80
2023-04-15T21:02:01.354Z,30.76
2023-04-15T21:04:27.932Z,30.24
2023-04-15T21:06:54.357Z,31.10
2023-04-15T21:09:20.931Z,31.69
2023-04-15T21:12:00.546Z,30.63
2023-04-15T21:14:27.312Z,30.48
2023-04-15T21:16:53.686Z,31.11
2023-04-15T21:19:20.083Z,31.51
2023-04-15T21:21:46.524Z,30.92
2023-04-15T21:24:12.925Z,30.21
2023-04-15T21:26:39.282Z,30.46
2023-04-15T21:29:07.851Z,31.04
2023-04-15T21:31:36.065Z,29.96
2023-04-15T21:34:02.504Z,31.09
2023-04-15T21:36:28.873Z,30.78
2023-04-15T21:38:55.338Z,29.95
2023-04-15T21:41:21.733Z,29.92
2023-04-15T21:43:48.232Z,30.26
2023-04-15T21:46:21.864Z,29.71
2023-04-15T21:48:51.559Z,30.19
2023-04-15T21:51:17.939Z,30.65
2023-04-15T21:53:44.420Z,31.38
2023-04-15T21:56:11.074Z,31.49
2023-04-15T21:58:37.562Z,31.12
2023-04-15T22:01:04.666Z,32.36
2023-04-15T22:03:35.224Z,32.56
2023-04-15T22:06:03.004Z,34.02
2023-04-15T22:08:30.996Z,32.71
2023-04-15T22:11:00.145Z,32.88
2023-04-15T22:13:26.578Z,34.37
2023-04-15T22:15:52.991Z,34.84
2023-04-15T22:18:19.339Z,35.25
2023-04-15T22:20:45.891Z,35.08
2023-04-15T22:23:12.334Z,35.03
2023-04-15T22:25:38.766Z,35.36
2023-04-15T22:28:09.425Z,36.49
2023-04-15T22:30:40.011Z,35.64
2023-04-15T22:33:07.838Z,35.68
2023-04-15T22:35:36.070Z,36.65
2023-04-15T22:38:03.734Z,34.63
2023-04-15T22:40:30.206Z,36.70
2023-04-15T22:42:56.741Z,36.07
2023-04-15T22:45:23.472Z,36.41
2023-04-15T22:47:49.909Z,36.67
2023-04-15T22:50:16.465Z,37.44
2023-04-15T22:52:46.008Z,37.39
2023-04-15T22:55:12.901Z,37.73
2023-04-15T22:57:39.264Z,36.79
2023-04-15T23:00:07.245Z,38.15
2023-04-15T23:02:34.700Z,38.65
2023-04-15T23:05:04.592Z,39.29
2023-04-15T23:07:39.601Z,38.52
2023-04-15T23:10:06.929Z,38.47
2023-04-15T23:12:33.374Z,38.95
2023-04-15T23:14:59.784Z,38.53
2023-04-15T23:17:26.719Z,38.80
2023-04-15T23:19:53.161Z,37.53
2023-04-15T23:22:19.545Z,38.91
2023-04-15T23:24:46.107Z,40.17
2023-04-15T23:27:12.497Z,38.93
2023-04-15T23:29:38.937Z,38.81
2023-04-15T23:32:05.870Z,40.30
2023-04-15T23:34:32.265Z,39.53
2023-04-15T23:36:58.617Z,40.30
2023-04-15T23:39:25.404Z,40.25
2023-04-15T23:41:51.900Z,40.31
2023-04-15T23:44:18.265Z,40.28
2023-04-15T23:46:44.734Z,39.29
2023-04-15T23:49:11.248Z,40.62
2023-04-15T23:51:37.730Z,39.36
2023-04-15T23:54:04.133Z,39.43
2023-04-15T23:56:31.404Z,39.89
2023-04-15T23:58:57.833Z,40.00
